»·PEaware :: FDX827 KSJC-KSAN

FDX827 :: KSJC-KSAN

FLIGHT INFORMATION

Flight Status: Arrived
Operator:
Federal Express
More flights by this operator :: More flights under this callsign
Pilot: Anonymous 31865 (31865)
Aircraft: BOEING 737-800
(B738)
More flights by this aircraft type
Origin: KSJC Mineta San Jose Intl
United States
Destination: KSAN San Diego Intl-Lindbergh
United States
More flights between these airports :: More routes between these airports
Route: TECKY3 EBAYE AVE FIM LAX COMIX2
File this flight plan on PilotEdge
Remarks:
Altitude:
(Current/Filed)
33,000ft
Speed:
(Current/Filed)
465kts
Departed: 29-Oct-21 11:02 AM
Arrived: 29-Oct-21 12:04 PM
Distance/Time
Traveled:
362nm/1:02
Distance/Time
To Go:
Arrived

Flight Plot

Page will automatically refresh every two minutes.

Flight plan parsing failed; only flown route is shown


Map Options




Map Legend


Flown Route
Filed Route
Departure Airport
Arrival Airport
Navaid (VOR, NDB)
Fix

Horizontal Profiles

Position Reports

Time Latitude Longitude Heading Altitude Ground
Speed
29-Oct-21 10:43 37.359879 -121.919752 137 70ft 0kts
29-Oct-21 10:44 37.359879 -121.919752 137 70ft 0kts
29-Oct-21 10:45 37.359879 -121.919752 137 70ft 0kts
29-Oct-21 10:46 37.359879 -121.919752 137 70ft 0kts
29-Oct-21 10:47 37.359879 -121.919752 137 70ft 0kts
29-Oct-21 10:48 37.359879 -121.919752 137 70ft 0kts
29-Oct-21 10:49 37.359879 -121.919752 137 70ft 0kts
29-Oct-21 10:50 37.359879 -121.919752 137 70ft 0kts
29-Oct-21 10:51 37.359879 -121.919752 137 70ft 0kts
29-Oct-21 10:52 37.359879 -121.919752 137 70ft 0kts
29-Oct-21 10:53 37.359879 -121.919752 137 70ft 0kts
29-Oct-21 10:54 37.359879 -121.919752 137 70ft 0kts
29-Oct-21 10:55 37.359879 -121.919752 137 70ft 0kts
29-Oct-21 10:56 37.359879 -121.919752 137 70ft 0kts
29-Oct-21 10:57 37.359879 -121.919752 137 70ft 0kts
29-Oct-21 10:58 37.358154 -121.919072 138 70ft 12kts
29-Oct-21 10:59 37.355145 -121.915767 138 70ft 14kts
29-Oct-21 11:00 37.352883 -121.914776 227 70ft 8kts
29-Oct-21 11:01 37.361396 -121.925265 318 71ft 132kts
29-Oct-21 11:02 37.391623 -121.958449 319 1595ft 165kts
29-Oct-21 11:03 37.440922 -121.954662 54 3343ft 223kts
29-Oct-21 11:04 37.425741 -121.886611 146 5930ft 235kts
29-Oct-21 11:05 37.368909 -121.828692 142 7732ft 284kts
29-Oct-21 11:06 37.307715 -121.764187 140 10191ft 296kts
29-Oct-21 11:07 37.241008 -121.688521 140 12529ft 333kts
29-Oct-21 11:08 37.170442 -121.608680 140 15496ft 351kts
29-Oct-21 11:09 37.096450 -121.525185 141 18136ft 367kts
29-Oct-21 11:10 37.018380 -121.439899 142 20221ft 378kts
29-Oct-21 11:11 36.937434 -121.353592 142 22347ft 390kts
29-Oct-21 11:12 36.853589 -121.264462 143 24218ft 402kts
29-Oct-21 11:13 36.767047 -121.172757 143 25906ft 414kts
29-Oct-21 11:14 36.678340 -121.079050 143 27439ft 424kts
29-Oct-21 11:15 36.587464 -120.984093 143 28814ft 433kts
29-Oct-21 11:16 36.493471 -120.888424 143 30023ft 443kts
29-Oct-21 11:17 36.396948 -120.790532 143 31221ft 450kts
29-Oct-21 11:18 36.299921 -120.692468 144 32577ft 449kts
29-Oct-21 11:19 36.200960 -120.592806 143 33049ft 469kts
29-Oct-21 11:20 36.100365 -120.491808 143 33023ft 468kts
29-Oct-21 11:21 35.999413 -120.390803 143 33030ft 467kts
29-Oct-21 11:22 35.898350 -120.290039 144 33025ft 467kts
29-Oct-21 11:23 35.804399 -120.178507 137 33025ft 470kts
29-Oct-21 11:24 35.713773 -120.063283 137 33038ft 470kts
29-Oct-21 11:25 35.618314 -119.954175 147 33046ft 465kts
29-Oct-21 11:26 35.512732 -119.862408 148 33022ft 465kts
29-Oct-21 11:27 35.407207 -119.771406 148 33019ft 465kts
29-Oct-21 11:28 35.301330 -119.680402 148 33021ft 465kts
29-Oct-21 11:29 35.195681 -119.589887 148 33021ft 465kts
29-Oct-21 11:30 35.089653 -119.499341 148 33021ft 465kts
29-Oct-21 11:31 34.983320 -119.408859 147 33012ft 468kts
29-Oct-21 11:32 34.875654 -119.317520 147 32974ft 475kts
29-Oct-21 11:33 34.767251 -119.225808 147 33002ft 476kts
29-Oct-21 11:34 34.658263 -119.133940 147 33049ft 477kts
29-Oct-21 11:35 34.549708 -119.042733 147 32972ft 476kts
29-Oct-21 11:36 34.440521 -118.951322 147 33000ft 482kts
29-Oct-21 11:37 34.331914 -118.854678 139 33010ft 487kts
29-Oct-21 11:38 34.230230 -118.746495 138 32995ft 487kts
29-Oct-21 11:39 34.128559 -118.638517 138 32996ft 486kts
29-Oct-21 11:40 34.026771 -118.530750 139 31436ft 479kts
29-Oct-21 11:41 33.929746 -118.426756 134 29618ft 461kts
29-Oct-21 11:42 33.843610 -118.315978 134 27620ft 444kts
29-Oct-21 11:43 33.761499 -118.209535 134 25670ft 425kts
29-Oct-21 11:44 33.682823 -118.106220 134 23781ft 413kts
29-Oct-21 11:45 33.607242 -118.007226 134 21774ft 395kts
29-Oct-21 11:46 33.533345 -117.913301 137 19817ft 379kts
29-Oct-21 11:47 33.458953 -117.826939 137 18260ft 369kts
29-Oct-21 11:48 33.384344 -117.745555 139 16757ft 359kts
29-Oct-21 11:49 33.310932 -117.667168 139 15670ft 354kts
29-Oct-21 11:50 33.238309 -117.589954 139 14665ft 352kts
29-Oct-21 11:51 33.166931 -117.514813 139 12574ft 337kts
29-Oct-21 11:52 33.095856 -117.449101 145 10709ft 300kts
29-Oct-21 11:53 33.031101 -117.395037 145 9652ft 273kts
29-Oct-21 11:54 32.970680 -117.344375 146 9034ft 262kts
29-Oct-21 11:55 32.911010 -117.294465 147 8862ft 264kts
29-Oct-21 11:56 32.852623 -117.245916 147 7727ft 250kts
29-Oct-21 11:57 32.815967 -117.178418 118 5999ft 243kts
29-Oct-21 11:58 32.787602 -117.108800 118 4115ft 223kts
29-Oct-21 11:59 32.757160 -117.048836 153 3113ft 209kts
29-Oct-21 12:00 32.707695 -117.063958 237 2325ft 179kts
29-Oct-21 12:01 32.717009 -117.119307 283 1396ft 164kts
29-Oct-21 12:02 32.728212 -117.167527 283 326ft 148kts
29-Oct-21 12:03 32.735341 -117.197180 275 25ft 14kts
29-Oct-21 12:04 32.734819 -117.198566 197 25ft 0kts
29-Oct-21 12:05 32.734415 -117.197443 105 25ft 12kts
29-Oct-21 12:06 32.733285 -117.192785 106 25ft 13kts
29-Oct-21 12:07 32.734809 -117.190351 86 25ft 10kts
29-Oct-21 12:08 32.733775 -117.185869 106 25ft 17kts
29-Oct-21 12:09 32.735026 -117.184442 324 25ft 11kts
29-Oct-21 12:10 32.736625 -117.185049 355 25ft 0kts
29-Oct-21 12:11 32.736625 -117.185049 355 25ft 0kts

Navigation Log

Ident Type
Flight plan parsing failed, navigation log unavailable